createdAt,value
2023-05-23T00:01:55.445Z,59.72
2023-05-23T00:04:29.489Z,65.90
2023-05-23T00:06:57.518Z,67.76
2023-05-23T00:09:25.926Z,64.52
2023-05-23T00:11:53.807Z,61.58
2023-05-23T00:14:26.695Z,60.03
2023-05-23T00:16:55.356Z,55.41
2023-05-23T00:19:23.627Z,56.43
2023-05-23T00:21:58.048Z,59.48
2023-05-23T00:24:29.919Z,64.39
2023-05-23T00:27:01.446Z,66.66
2023-05-23T00:29:30.217Z,63.81
2023-05-23T00:31:58.736Z,61.17
2023-05-23T00:34:28.869Z,59.75
2023-05-23T00:36:58.319Z,57.09
2023-05-23T00:39:26.741Z,57.92
2023-05-23T00:41:59.661Z,60.01
2023-05-23T00:44:29.908Z,60.70
2023-05-23T00:47:01.739Z,66.76
2023-05-23T00:49:31.079Z,65.07
2023-05-23T00:52:01.045Z,63.71
2023-05-23T00:54:33.145Z,61.98
2023-05-23T00:57:02.005Z,61.74
2023-05-23T00:59:31.284Z,61.36
2023-05-23T01:02:01.355Z,60.72
2023-05-23T01:04:34.433Z,57.60
2023-05-23T01:07:07.132Z,59.42
2023-05-23T01:09:37.990Z,61.12
2023-05-23T01:12:26.531Z,66.76
2023-05-23T01:15:09.196Z,65.23
2023-05-23T01:18:04.685Z,64.39
2023-05-23T01:20:45.596Z,62.61
2023-05-23T01:24:03.728Z,60.92
2023-05-23T01:26:53.010Z,58.17
2023-05-23T01:29:55.127Z,56.46
2023-05-23T01:32:27.333Z,58.24
2023-05-23T01:34:57.475Z,63.71
2023-05-23T01:37:25.645Z,66.03
2023-05-23T01:39:54.049Z,64.03
2023-05-23T01:42:22.433Z,62.16
2023-05-23T01:44:50.575Z,60.59
2023-05-23T01:47:21.061Z,57.43
2023-05-23T01:49:51.033Z,57.09
2023-05-23T01:52:21.433Z,58.92
2023-05-23T01:54:51.097Z,60.91
2023-05-23T01:57:21.065Z,67.03
2023-05-23T01:59:49.696Z,67.18
2023-05-23T02:02:20.092Z,64.22
2023-05-23T02:04:50.178Z,61.84
2023-05-23T02:07:23.581Z,60.97
2023-05-23T02:09:52.325Z,58.47
2023-05-23T02:12:20.945Z,59.02
2023-05-23T02:14:52.438Z,60.79
2023-05-23T02:17:25.885Z,66.18
2023-05-23T02:19:54.003Z,66.07
2023-05-23T02:22:26.863Z,63.94
2023-05-23T02:24:54.894Z,62.26
2023-05-23T02:27:23.606Z,61.02
2023-05-23T02:29:54.725Z,59.19
2023-05-23T02:32:23.719Z,58.99
2023-05-23T02:34:53.324Z,60.36
2023-05-23T02:37:22.520Z,64.79
2023-05-23T02:39:50.376Z,65.16
2023-05-23T02:42:20.255Z,62.68
2023-05-23T02:44:51.708Z,62.13
2023-05-23T02:47:20.292Z,61.40
2023-05-23T02:49:49.822Z,60.35
2023-05-23T02:52:21.299Z,57.37
2023-05-23T02:54:49.163Z,57.83
2023-05-23T02:57:17.158Z,59.76
2023-05-23T02:59:46.128Z,64.39
2023-05-23T03:02:14.061Z,67.05
2023-05-23T03:04:42.439Z,65.47
2023-05-23T03:07:26.892Z,63.59
2023-05-23T03:09:57.722Z,62.30
2023-05-23T03:12:29.820Z,61.51
2023-05-23T03:14:58.402Z,60.91
2023-05-23T03:17:27.156Z,60.42
2023-05-23T03:19:56.436Z,58.00
2023-05-23T03:22:25.669Z,57.68
2023-05-23T03:24:53.553Z,61.06
2023-05-23T03:27:23.554Z,65.64
2023-05-23T03:29:52.389Z,66.10
2023-05-23T03:32:22.936Z,64.20
2023-05-23T03:34:50.876Z,61.52
2023-05-23T03:37:20.509Z,60.18
2023-05-23T03:39:50.979Z,57.24
2023-05-23T03:42:20.459Z,57.66
2023-05-23T03:44:48.379Z,59.85
2023-05-23T03:47:16.454Z,65.49
2023-05-23T03:49:45.685Z,66.17
2023-05-23T03:52:14.183Z,60.12
2023-05-23T03:54:42.575Z,58.83
2023-05-23T03:57:10.702Z,60.78
2023-05-23T03:59:38.765Z,64.29
2023-05-23T04:02:11.749Z,63.33
2023-05-23T04:04:40.263Z,62.43
2023-05-23T04:07:10.213Z,61.00
2023-05-23T04:09:40.338Z,60.77
2023-05-23T04:12:10.444Z,60.10
2023-05-23T04:14:39.511Z,58.30
2023-05-23T04:17:09.559Z,60.57
2023-05-23T04:19:37.977Z,65.16
2023-05-23T04:22:06.066Z,63.64
2023-05-23T04:24:33.987Z,62.34
2023-05-23T04:27:04.569Z,62.25
2023-05-23T04:29:32.368Z,61.52
2023-05-23T04:32:03.054Z,62.09
2023-05-23T04:34:38.226Z,62.21
2023-05-23T04:37:07.593Z,62.20
2023-05-23T04:39:35.751Z,61.07
2023-05-23T04:42:04.299Z,60.98
2023-05-23T04:44:32.119Z,60.85
2023-05-23T04:47:03.259Z,60.83
2023-05-23T04:49:34.304Z,60.68
2023-05-23T04:52:02.221Z,60.37
2023-05-23T04:54:31.651Z,60.37
2023-05-23T04:57:00.824Z,60.36
2023-05-23T04:59:29.084Z,60.40
2023-05-23T05:01:59.375Z,59.96
2023-05-23T05:04:27.422Z,58.61
2023-05-23T05:07:00.146Z,58.63
2023-05-23T05:09:28.123Z,61.20
2023-05-23T05:11:58.401Z,63.93
2023-05-23T05:14:28.063Z,64.02
2023-05-23T05:16:58.463Z,63.18
2023-05-23T05:19:26.566Z,62.18
2023-05-23T05:21:54.519Z,61.16
2023-05-23T05:24:22.747Z,59.87
2023-05-23T05:26:50.964Z,56.79
2023-05-23T05:29:19.306Z,58.30
2023-05-23T05:31:47.300Z,62.10
2023-05-23T05:34:15.355Z,64.56
2023-05-23T05:36:47.060Z,63.81
2023-05-23T05:39:15.733Z,61.86
2023-05-23T05:41:43.798Z,59.57
2023-05-23T05:44:12.115Z,61.23
2023-05-23T05:46:40.570Z,64.11
2023-05-23T05:49:10.310Z,62.64
2023-05-23T05:51:39.545Z,61.61
2023-05-23T05:54:08.160Z,60.19
2023-05-23T05:56:37.552Z,58.46
2023-05-23T05:59:05.431Z,58.85
2023-05-23T06:01:34.979Z,61.70
2023-05-23T06:04:03.611Z,64.80
2023-05-23T06:06:32.837Z,63.96
2023-05-23T06:09:03.741Z,60.58
2023-05-23T06:11:32.546Z,59.82
2023-05-23T06:14:00.561Z,57.98
2023-05-23T06:16:28.644Z,60.34
2023-05-23T06:18:56.886Z,63.47
2023-05-23T06:21:25.479Z,63.29
2023-05-23T06:23:59.115Z,61.56
2023-05-23T06:26:27.745Z,60.41
2023-05-23T06:28:56.780Z,58.62
2023-05-23T06:31:25.434Z,59.80
2023-05-23T06:33:54.573Z,60.65
2023-05-23T06:36:22.412Z,64.75
2023-05-23T06:38:50.750Z,65.97
2023-05-23T06:41:18.917Z,62.62
2023-05-23T06:43:46.733Z,60.87
2023-05-23T06:46:14.641Z,57.67
2023-05-23T06:48:42.902Z,58.50
2023-05-23T06:51:11.630Z,63.05
2023-05-23T06:53:42.330Z,63.76
2023-05-23T06:56:10.593Z,62.81
2023-05-23T06:58:38.858Z,61.22
2023-05-23T07:01:08.110Z,61.40
2023-05-23T07:03:41.328Z,60.63
2023-05-23T07:06:09.304Z,59.76
2023-05-23T07:08:39.493Z,55.85
2023-05-23T07:11:08.415Z,57.92
2023-05-23T07:13:36.686Z,60.25
2023-05-23T07:16:06.062Z,64.60
2023-05-23T07:18:38.452Z,64.33
2023-05-23T07:21:06.912Z,61.41
2023-05-23T07:23:41.198Z,60.56
2023-05-23T07:26:10.397Z,58.61
2023-05-23T07:28:38.253Z,58.65
2023-05-23T07:31:08.184Z,62.35
2023-05-23T07:33:37.199Z,63.98
2023-05-23T07:36:07.950Z,61.75
2023-05-23T07:38:36.025Z,60.54
2023-05-23T07:41:11.484Z,59.05
2023-05-23T07:43:41.135Z,58.86
2023-05-23T07:46:09.266Z,61.86
2023-05-23T07:48:41.514Z,65.20
2023-05-23T07:51:09.518Z,64.38
2023-05-23T07:53:40.240Z,61.91
2023-05-23T07:56:08.445Z,61.11
2023-05-23T07:58:39.123Z,61.11
2023-05-23T08:01:08.164Z,57.66
2023-05-23T08:03:41.103Z,58.26
2023-05-23T08:06:10.071Z,63.19
2023-05-23T08:08:37.949Z,64.72
2023-05-23T08:11:05.841Z,64.10
2023-05-23T08:13:33.736Z,63.00
2023-05-23T08:16:02.282Z,60.26
2023-05-23T08:18:33.941Z,59.00
2023-05-23T08:21:03.465Z,61.92
2023-05-23T08:23:32.149Z,65.16
2023-05-23T08:26:00.418Z,64.85
2023-05-23T08:28:29.038Z,62.78
2023-05-23T08:30:57.931Z,61.31
2023-05-23T08:33:25.790Z,59.79
2023-05-23T08:35:55.274Z,58.85
2023-05-23T08:38:24.210Z,62.13
2023-05-23T08:40:53.025Z,65.65
2023-05-23T08:43:22.365Z,63.33
2023-05-23T08:45:55.414Z,62.05
2023-05-23T08:48:28.317Z,61.60
2023-05-23T08:50:59.581Z,61.58
2023-05-23T08:53:30.324Z,61.07
2023-05-23T08:56:02.740Z,57.79
2023-05-23T08:58:34.535Z,57.67
2023-05-23T09:01:02.753Z,61.74
2023-05-23T09:03:31.785Z,65.57
2023-05-23T09:06:01.423Z,65.91
2023-05-23T09:08:30.619Z,62.33
2023-05-23T09:10:59.054Z,60.88
2023-05-23T09:13:30.322Z,59.06
2023-05-23T09:16:06.897Z,59.71
2023-05-23T09:18:41.901Z,63.47
2023-05-23T09:21:11.699Z,65.09
2023-05-23T09:23:42.905Z,62.38
2023-05-23T09:26:15.682Z,61.85
2023-05-23T09:28:45.419Z,60.47
2023-05-23T09:31:13.529Z,60.12
2023-05-23T09:33:48.416Z,57.84
2023-05-23T09:36:20.190Z,59.85
2023-05-23T09:38:52.772Z,64.24
2023-05-23T09:41:22.326Z,66.79
2023-05-23T09:43:57.700Z,63.20
2023-05-23T09:46:31.081Z,61.81
2023-05-23T09:49:00.438Z,60.78
2023-05-23T09:51:29.531Z,59.96
2023-05-23T09:53:58.734Z,57.07
2023-05-23T09:56:29.113Z,57.10
2023-05-23T09:58:59.419Z,59.53
2023-05-23T10:01:30.577Z,61.97
2023-05-23T10:04:00.651Z,66.11
2023-05-23T10:06:52.289Z,65.25
2023-05-23T10:09:25.355Z,63.25
2023-05-23T10:12:31.195Z,58.92
2023-05-23T10:15:08.363Z,58.42
2023-05-23T10:18:14.054Z,60.97
2023-05-23T10:20:49.396Z,64.66
2023-05-23T10:23:18.971Z,63.90
2023-05-23T10:25:48.793Z,61.79
2023-05-23T10:28:19.395Z,60.11
2023-05-23T10:30:48.684Z,56.10
2023-05-23T10:33:18.443Z,55.91
2023-05-23T10:36:12.425Z,57.49
2023-05-23T10:39:10.186Z,62.29
2023-05-23T10:41:55.390Z,63.51
2023-05-23T10:44:33.607Z,63.24
2023-05-23T10:47:05.314Z,61.75
2023-05-23T10:49:44.522Z,58.21
2023-05-23T10:52:17.578Z,58.99
2023-05-23T10:54:51.677Z,61.29
2023-05-23T10:57:23.128Z,64.63
2023-05-23T10:59:54.009Z,65.10
2023-05-23T11:02:30.528Z,61.34
2023-05-23T11:05:24.542Z,58.89
2023-05-23T11:08:18.190Z,59.80
2023-05-23T11:11:03.379Z,62.69
2023-05-23T11:13:53.838Z,62.40
2023-05-23T11:16:36.878Z,60.65
2023-05-23T11:19:28.568Z,58.51
2023-05-23T11:22:09.500Z,58.13
2023-05-23T11:24:55.862Z,62.07
2023-05-23T11:27:35.983Z,63.12
2023-05-23T11:30:18.314Z,61.96
2023-05-23T11:32:56.288Z,60.96
2023-05-23T11:35:25.220Z,58.18
2023-05-23T11:37:53.720Z,58.65
2023-05-23T11:40:41.840Z,59.98
2023-05-23T11:43:19.986Z,63.91
2023-05-23T11:45:48.325Z,62.58
2023-05-23T11:48:18.601Z,61.40
2023-05-23T11:50:54.689Z,57.19
2023-05-23T11:53:27.621Z,57.27
2023-05-23T11:56:00.239Z,57.76
2023-05-23T11:58:33.311Z,61.54
2023-05-23T12:01:05.189Z,65.24
2023-05-23T12:03:48.201Z,63.31
2023-05-23T12:06:20.896Z,57.06
2023-05-23T12:08:49.108Z,57.49
2023-05-23T12:11:18.742Z,59.61
2023-05-23T12:13:47.502Z,60.35
2023-05-23T12:16:19.216Z,59.83
2023-05-23T12:18:48.055Z,59.77
2023-05-23T12:21:18.166Z,61.25
2023-05-23T12:23:47.503Z,61.00
2023-05-23T12:26:15.402Z,61.26
2023-05-23T12:28:45.755Z,63.18
2023-05-23T12:31:23.567Z,62.24
2023-05-23T12:33:53.762Z,58.90
2023-05-23T12:36:27.964Z,55.12
2023-05-23T12:39:05.113Z,56.91
2023-05-23T12:41:36.496Z,56.90
2023-05-23T12:44:06.604Z,58.50
2023-05-23T12:46:34.765Z,59.26
2023-05-23T12:49:03.665Z,60.54
2023-05-23T12:51:32.949Z,61.02
2023-05-23T12:54:02.671Z,58.81
2023-05-23T12:56:31.364Z,55.73
2023-05-23T12:58:59.465Z,56.78
2023-05-23T13:01:30.109Z,57.89
2023-05-23T13:03:58.674Z,58.69
2023-05-23T13:06:28.275Z,60.17
2023-05-23T13:08:58.128Z,60.45
2023-05-23T13:11:27.230Z,60.62
2023-05-23T13:13:55.582Z,60.58
2023-05-23T13:16:23.583Z,60.35
2023-05-23T13:18:53.132Z,60.03
2023-05-23T13:21:23.221Z,60.56
2023-05-23T13:23:51.087Z,59.61
2023-05-23T13:26:20.550Z,58.08
2023-05-23T13:28:50.745Z,58.18
2023-05-23T13:31:19.049Z,58.14
2023-05-23T13:33:47.530Z,58.13
2023-05-23T13:36:17.494Z,58.70
2023-05-23T13:38:45.393Z,59.13
2023-05-23T13:41:15.020Z,58.44
2023-05-23T13:43:43.274Z,57.85
2023-05-23T13:46:12.664Z,57.52
2023-05-23T13:48:41.584Z,57.70
2023-05-23T13:51:13.468Z,56.73
2023-05-23T13:53:41.394Z,57.68
2023-05-23T13:56:10.285Z,58.25
2023-05-23T13:58:38.333Z,58.54
2023-05-23T14:01:06.358Z,57.78
2023-05-23T14:03:37.830Z,57.29
2023-05-23T14:06:06.142Z,56.83
2023-05-23T14:08:36.023Z,57.00
2023-05-23T14:11:03.995Z,58.57
2023-05-23T14:13:32.913Z,58.26
2023-05-23T14:16:00.921Z,58.37
2023-05-23T14:18:29.221Z,58.70
2023-05-23T14:20:58.156Z,56.44
2023-05-23T14:23:30.251Z,56.64
2023-05-23T14:25:59.142Z,56.66
2023-05-23T14:28:33.185Z,54.23
2023-05-23T14:31:01.649Z,54.04
2023-05-23T14:33:29.981Z,53.29
2023-05-23T14:35:59.870Z,54.18
2023-05-23T14:38:29.516Z,51.31
2023-05-23T14:40:59.068Z,52.13
2023-05-23T14:43:28.454Z,53.74
2023-05-23T14:45:59.578Z,53.49
2023-05-23T14:48:27.488Z,53.62
2023-05-23T14:50:55.701Z,54.27
2023-05-23T14:53:28.216Z,54.30
2023-05-23T14:55:57.062Z,54.35
2023-05-23T14:58:35.384Z,54.08
2023-05-23T15:01:04.403Z,54.47
2023-05-23T15:03:34.405Z,54.94
2023-05-23T15:06:05.894Z,55.76
2023-05-23T15:08:34.524Z,56.55
2023-05-23T15:11:11.684Z,57.63
2023-05-23T15:13:39.686Z,57.60
2023-05-23T15:16:07.589Z,58.03
2023-05-23T15:18:41.259Z,57.79
2023-05-23T15:21:12.452Z,57.41
2023-05-23T15:23:48.149Z,57.70
2023-05-23T15:26:16.859Z,57.30
2023-05-23T15:28:46.930Z,56.97
2023-05-23T15:31:15.182Z,56.93
2023-05-23T15:33:43.538Z,56.84
2023-05-23T15:36:13.352Z,56.41
2023-05-23T15:38:43.949Z,56.14
2023-05-23T15:41:11.931Z,56.35
2023-05-23T15:43:40.093Z,56.90
2023-05-23T15:46:10.858Z,57.61
2023-05-23T15:48:40.429Z,58.41
2023-05-23T15:51:08.900Z,58.82
2023-05-23T15:53:47.870Z,59.27
2023-05-23T15:56:26.546Z,58.98
2023-05-23T15:58:54.460Z,58.81
2023-05-23T16:01:22.680Z,59.01
2023-05-23T16:03:50.828Z,57.73
2023-05-23T16:06:19.378Z,56.78
2023-05-23T16:08:47.405Z,55.57
2023-05-23T16:11:15.809Z,54.56
2023-05-23T16:13:44.065Z,54.00
2023-05-23T16:16:12.641Z,53.75
2023-05-23T16:18:41.291Z,53.58
2023-05-23T16:21:09.995Z,53.41
2023-05-23T16:23:39.940Z,53.07
2023-05-23T16:26:08.494Z,53.43
2023-05-23T16:28:37.013Z,53.25
2023-05-23T16:31:04.873Z,52.78
2023-05-23T16:33:34.133Z,53.24
2023-05-23T16:36:02.136Z,53.14
2023-05-23T16:38:33.781Z,53.63
2023-05-23T16:41:02.048Z,54.56
2023-05-23T16:43:31.938Z,54.86
2023-05-23T16:46:00.559Z,55.01
2023-05-23T16:48:31.267Z,54.96
2023-05-23T16:51:02.702Z,54.82
2023-05-23T16:53:34.861Z,53.20
2023-05-23T16:56:04.461Z,53.42
2023-05-23T16:58:36.139Z,53.60
2023-05-23T17:01:06.288Z,53.43
2023-05-23T17:03:34.784Z,53.06
2023-05-23T17:06:03.361Z,53.64
2023-05-23T17:08:31.276Z,54.19
2023-05-23T17:11:03.561Z,54.11
2023-05-23T17:13:32.902Z,52.50
2023-05-23T17:16:01.979Z,52.66
2023-05-23T17:18:30.415Z,52.71
2023-05-23T17:21:01.728Z,53.40
2023-05-23T17:23:35.245Z,54.00
2023-05-23T17:26:04.326Z,53.70
2023-05-23T17:28:32.508Z,54.00
2023-05-23T17:31:04.405Z,53.30
2023-05-23T17:33:33.653Z,53.94
2023-05-23T17:36:02.517Z,54.73
2023-05-23T17:38:30.774Z,55.13
2023-05-23T17:41:05.766Z,55.14
2023-05-23T17:43:36.090Z,55.39
2023-05-23T17:46:06.614Z,55.52
2023-05-23T17:48:47.092Z,55.68
2023-05-23T17:51:16.879Z,55.89
2023-05-23T17:53:48.385Z,56.34
2023-05-23T17:56:16.673Z,56.47
2023-05-23T17:58:45.089Z,56.87
2023-05-23T18:01:14.681Z,57.74
2023-05-23T18:03:44.899Z,57.64
2023-05-23T18:06:12.806Z,58.14
2023-05-23T18:08:41.983Z,58.52
2023-05-23T18:11:10.315Z,58.80
2023-05-23T18:13:38.088Z,58.66
2023-05-23T18:16:07.373Z,58.85
2023-05-23T18:18:37.083Z,58.87
2023-05-23T18:21:07.330Z,59.12
2023-05-23T18:23:36.728Z,59.16
2023-05-23T18:26:05.060Z,58.97
2023-05-23T18:28:34.086Z,59.24
2023-05-23T18:31:02.363Z,59.12
2023-05-23T18:33:30.533Z,59.05
2023-05-23T18:35:58.479Z,58.90
2023-05-23T18:38:26.687Z,59.24
2023-05-23T18:40:57.120Z,59.72
2023-05-23T18:43:25.000Z,59.94
2023-05-23T18:45:53.548Z,59.96
2023-05-23T18:48:22.439Z,59.91
2023-05-23T18:50:50.740Z,59.91
2023-05-23T18:53:20.451Z,60.28
2023-05-23T18:55:49.644Z,60.77
2023-05-23T18:58:19.566Z,60.98
2023-05-23T19:00:49.203Z,61.40
2023-05-23T19:03:17.742Z,61.82
2023-05-23T19:05:45.975Z,61.70
2023-05-23T19:08:13.869Z,61.94
2023-05-23T19:10:42.074Z,61.99
2023-05-23T19:13:10.761Z,62.65
2023-05-23T19:15:38.973Z,63.11
2023-05-23T19:18:07.820Z,63.58
2023-05-23T19:20:36.845Z,55.78
2023-05-23T19:23:05.297Z,54.40
2023-05-23T19:25:33.233Z,55.34
2023-05-23T19:28:01.250Z,56.09
2023-05-23T19:30:29.471Z,57.18
2023-05-23T19:33:01.452Z,58.28
2023-05-23T19:35:32.176Z,59.34
2023-05-23T19:38:01.358Z,59.99
2023-05-23T19:40:29.410Z,60.65
2023-05-23T19:42:57.384Z,60.77
2023-05-23T19:45:26.043Z,60.97
2023-05-23T19:47:54.674Z,61.23
2023-05-23T19:50:22.650Z,61.50
2023-05-23T19:52:50.879Z,61.37
2023-05-23T19:55:18.907Z,61.81
2023-05-23T19:57:46.898Z,61.87
2023-05-23T20:00:15.414Z,62.22
2023-05-23T20:02:44.724Z,64.87
2023-05-23T20:05:15.467Z,66.70
2023-05-23T20:07:43.282Z,59.01
2023-05-23T20:10:11.611Z,55.25
2023-05-23T20:12:39.658Z,56.16
2023-05-23T20:15:08.376Z,57.04
2023-05-23T20:17:37.260Z,59.01
2023-05-23T20:20:06.453Z,59.58
2023-05-23T20:22:34.696Z,60.57
2023-05-23T20:25:03.140Z,61.01
2023-05-23T20:27:32.277Z,63.08
2023-05-23T20:30:01.206Z,61.90
2023-05-23T20:32:30.869Z,58.84
2023-05-23T20:34:58.774Z,56.40
2023-05-23T20:37:28.300Z,57.49
2023-05-23T20:39:56.812Z,58.49
2023-05-23T20:42:26.718Z,59.02
2023-05-23T20:44:57.076Z,60.57
2023-05-23T20:47:25.791Z,60.69
2023-05-23T20:49:53.938Z,61.45
2023-05-23T20:52:23.018Z,62.33
2023-05-23T20:54:52.553Z,65.52
2023-05-23T20:57:24.023Z,62.58
2023-05-23T20:59:52.703Z,61.69
2023-05-23T21:02:22.278Z,55.50
2023-05-23T21:04:50.783Z,54.61
2023-05-23T21:07:18.796Z,56.64
2023-05-23T21:09:47.164Z,58.01
2023-05-23T21:12:15.467Z,59.31
2023-05-23T21:14:44.482Z,59.58
2023-05-23T21:17:12.645Z,61.34
2023-05-23T21:19:40.646Z,64.13
2023-05-23T21:22:10.625Z,64.65
2023-05-23T21:24:38.824Z,58.76
2023-05-23T21:27:07.840Z,56.57
2023-05-23T21:29:35.682Z,58.28
2023-05-23T21:32:04.737Z,60.46
2023-05-23T21:34:33.061Z,61.97
2023-05-23T21:37:01.101Z,63.58
2023-05-23T21:39:39.248Z,61.85
2023-05-23T21:42:15.691Z,57.73
2023-05-23T21:44:43.678Z,58.21
2023-05-23T21:47:11.971Z,60.87
2023-05-23T21:49:40.589Z,61.72
2023-05-23T21:52:11.874Z,63.83
2023-05-23T21:54:39.824Z,63.56
2023-05-23T21:57:07.748Z,62.51
2023-05-23T21:59:35.621Z,57.09
2023-05-23T22:02:03.952Z,55.67
2023-05-23T22:04:33.066Z,57.42
2023-05-23T22:07:02.914Z,59.74
2023-05-23T22:09:30.799Z,61.20
2023-05-23T22:11:58.871Z,64.59
2023-05-23T22:14:27.558Z,63.97
2023-05-23T22:16:56.633Z,60.16
2023-05-23T22:19:26.433Z,56.61
2023-05-23T22:21:56.599Z,57.27
2023-05-23T22:24:25.575Z,59.97
2023-05-23T22:26:53.917Z,62.65
2023-05-23T22:29:22.450Z,64.17
2023-05-23T22:31:50.594Z,61.08
2023-05-23T22:34:18.751Z,57.38
2023-05-23T22:36:47.928Z,57.00
2023-05-23T22:39:16.622Z,58.83
2023-05-23T22:41:44.961Z,61.49
2023-05-23T22:44:12.836Z,63.27
2023-05-23T22:46:43.904Z,61.32
2023-05-23T22:49:12.157Z,57.52
2023-05-23T22:51:40.862Z,57.39
2023-05-23T22:54:08.714Z,58.71
2023-05-23T22:56:36.892Z,60.02
2023-05-23T22:59:04.830Z,61.97
2023-05-23T23:01:33.794Z,64.32
2023-05-23T23:04:01.726Z,62.55
2023-05-23T23:06:29.646Z,58.87
2023-05-23T23:08:59.191Z,57.63
2023-05-23T23:11:27.281Z,58.80
2023-05-23T23:13:55.162Z,61.78
2023-05-23T23:16:23.353Z,63.85
2023-05-23T23:18:52.308Z,61.90
2023-05-23T23:21:21.126Z,58.01
2023-05-23T23:23:50.099Z,57.90
2023-05-23T23:26:18.070Z,60.28
2023-05-23T23:28:48.509Z,62.94
2023-05-23T23:31:18.177Z,63.44
2023-05-23T23:33:46.482Z,61.05
2023-05-23T23:36:15.909Z,57.18
2023-05-23T23:38:46.486Z,57.21
2023-05-23T23:41:14.654Z,60.14
2023-05-23T23:43:42.482Z,61.23
2023-05-23T23:46:10.767Z,63.90
2023-05-23T23:48:38.938Z,64.31
2023-05-23T23:51:07.034Z,59.88
2023-05-23T23:53:34.925Z,56.72
2023-05-23T23:56:03.237Z,57.43
2023-05-23T23:58:31.625Z,60.59
